createdAt,value
2022-09-10T00:03:08.560Z,90.26
2022-09-10T00:08:12.439Z,90.24
2022-09-10T00:13:21.069Z,90.21
2022-09-10T00:18:24.054Z,90.20
2022-09-10T00:23:30.055Z,90.18
2022-09-10T00:28:33.005Z,90.19
2022-09-10T00:33:35.889Z,90.19
2022-09-10T00:38:38.967Z,90.26
2022-09-10T00:44:02.525Z,90.26
2022-09-10T00:49:21.506Z,90.26
2022-09-10T01:10:36.145Z,90.53
2022-09-10T01:16:02.539Z,90.41
2022-09-10T01:21:32.260Z,90.36
2022-09-10T01:27:19.160Z,90.37
2022-09-10T01:32:30.212Z,90.36
2022-09-10T01:37:37.911Z,90.38
2022-09-10T01:42:41.285Z,90.29
2022-09-10T01:48:01.831Z,90.33
2022-09-10T01:53:28.256Z,90.29
2022-09-10T01:58:40.206Z,90.33
2022-09-10T02:03:47.256Z,90.31
2022-09-10T02:08:53.874Z,90.29
2022-09-10T02:13:57.754Z,90.24
2022-09-10T02:19:01.558Z,90.25
2022-09-10T02:24:09.834Z,90.25
2022-09-10T02:29:14.281Z,90.29
2022-09-10T02:34:15.785Z,90.30
2022-09-10T02:39:17.353Z,90.32
2022-09-10T02:44:18.892Z,90.38
2022-09-10T02:49:21.105Z,90.42
2022-09-10T02:54:22.587Z,90.44
2022-09-10T02:59:24.576Z,90.67
2022-09-10T03:04:26.091Z,90.68
2022-09-10T03:09:28.268Z,90.65
2022-09-10T03:14:30.526Z,90.60
2022-09-10T03:19:32.034Z,90.60
2022-09-10T03:24:33.520Z,90.58
2022-09-10T03:29:35.699Z,90.60
2022-09-10T03:34:37.268Z,90.58
2022-09-10T03:39:38.742Z,90.54
2022-09-10T03:44:40.368Z,90.50
2022-09-10T03:49:42.173Z,90.47
2022-09-10T03:54:44.930Z,90.46
2022-09-10T03:59:46.561Z,90.55
2022-09-10T04:04:48.405Z,90.56
2022-09-10T04:09:50.227Z,90.57
2022-09-10T04:14:52.097Z,90.57
2022-09-10T04:19:53.659Z,90.61
2022-09-10T04:24:55.339Z,90.68
2022-09-10T04:29:57.077Z,90.64
2022-09-10T04:34:58.629Z,90.67
2022-09-10T04:40:00.570Z,90.61
2022-09-10T04:45:02.273Z,90.59
2022-09-10T04:50:05.928Z,90.64
2022-09-10T04:55:07.893Z,90.64
2022-09-10T05:00:10.540Z,90.70
2022-09-10T05:05:12.060Z,90.72
2022-09-10T05:10:14.746Z,90.74
2022-09-10T05:15:16.311Z,90.67
2022-09-10T05:20:17.813Z,90.69
2022-09-10T05:25:19.265Z,90.61
2022-09-10T05:30:21.359Z,90.68
2022-09-10T05:35:22.846Z,90.53
2022-09-10T05:40:24.856Z,90.57
2022-09-10T05:45:26.561Z,90.54
2022-09-10T05:50:29.776Z,90.62
2022-09-10T05:55:32.591Z,90.58
2022-09-10T06:00:35.896Z,90.48
2022-09-10T06:05:37.426Z,90.46
2022-09-10T06:10:38.933Z,90.39
2022-09-10T06:15:41.650Z,90.36
2022-09-10T06:20:43.145Z,90.20
2022-09-10T06:25:45.465Z,89.97
2022-09-10T06:30:46.974Z,89.90
2022-09-10T06:35:53.997Z,90.03
2022-09-10T06:41:00.090Z,89.72
2022-09-10T06:46:19.259Z,89.79
2022-09-10T06:51:31.436Z,89.92
2022-09-10T06:56:33.436Z,89.80
2022-09-10T07:01:35.229Z,89.69
2022-09-10T07:06:37.779Z,89.74
2022-09-10T07:11:41.768Z,89.74
2022-09-10T07:16:44.043Z,89.42
2022-09-10T07:21:45.551Z,89.38
2022-09-10T07:26:47.083Z,89.34
2022-09-10T07:31:49.016Z,89.27
2022-09-10T07:36:50.748Z,89.32
2022-09-10T07:41:52.878Z,88.64
2022-09-10T07:46:54.422Z,88.63
2022-09-10T07:51:59.776Z,88.57
2022-09-10T07:57:02.529Z,88.19
2022-09-10T08:02:05.927Z,87.60
2022-09-10T08:07:07.783Z,87.97
2022-09-10T08:12:09.348Z,87.61
2022-09-10T08:17:10.927Z,87.75
2022-09-10T08:22:13.847Z,87.17
2022-09-10T08:27:16.850Z,86.69
2022-09-10T08:32:18.410Z,86.91
2022-09-10T08:37:20.894Z,86.14
2022-09-10T08:42:32.740Z,85.07
2022-09-10T08:48:01.907Z,85.62
2022-09-10T08:53:22.575Z,85.07
2022-09-10T08:58:41.956Z,85.67
2022-09-10T09:03:46.839Z,85.73
2022-09-10T09:08:49.639Z,85.08
2022-09-10T09:14:12.485Z,83.96
2022-09-10T09:19:48.974Z,83.80
2022-09-10T09:25:03.543Z,83.19
2022-09-10T09:30:16.799Z,82.42
2022-09-10T09:35:31.862Z,82.47
2022-09-10T09:40:50.144Z,82.93
2022-09-10T09:45:53.393Z,83.29
2022-09-10T09:50:59.762Z,83.62
2022-09-10T09:56:10.383Z,83.99
2022-09-10T10:01:17.589Z,84.29
2022-09-10T10:06:28.093Z,84.33
2022-09-10T10:11:44.901Z,84.61
2022-09-10T10:16:48.318Z,84.34
2022-09-10T10:21:49.928Z,84.45
2022-09-10T10:26:51.556Z,84.38
2022-09-10T10:31:55.583Z,84.58
2022-09-10T10:37:42.430Z,84.64
2022-09-10T10:43:15.713Z,84.57
2022-09-10T10:48:29.093Z,84.53
2022-09-10T10:54:04.853Z,84.60
2022-09-10T10:59:36.335Z,84.61
2022-09-10T11:04:53.680Z,84.54
2022-09-10T11:10:24.261Z,84.73
2022-09-10T11:15:53.324Z,85.01
2022-09-10T11:21:15.755Z,85.13
2022-09-10T11:26:54.050Z,85.10
2022-09-10T11:32:17.799Z,85.02
2022-09-10T11:37:22.038Z,85.03
2022-09-10T11:42:41.354Z,84.87
2022-09-10T11:48:01.536Z,84.69
2022-09-10T11:53:06.764Z,84.75
2022-09-10T11:58:45.656Z,84.78
2022-09-10T12:04:08.205Z,84.82
2022-09-10T12:09:49.207Z,84.80
2022-09-10T12:14:51.042Z,84.70
2022-09-10T12:19:55.972Z,84.75
2022-09-10T12:25:15.755Z,84.81
2022-09-10T12:30:30.294Z,84.69
2022-09-10T12:35:34.894Z,84.37
2022-09-10T12:40:36.423Z,84.55
2022-09-10T12:46:09.278Z,84.73
2022-09-10T12:51:17.457Z,84.78
2022-09-10T12:56:56.877Z,84.98
2022-09-10T13:01:59.198Z,84.79
2022-09-10T13:07:27.372Z,84.91
2022-09-10T13:12:32.238Z,84.89
2022-09-10T13:18:00.732Z,84.79
2022-09-10T13:23:08.255Z,84.76
2022-09-10T13:28:29.295Z,84.99
2022-09-10T13:33:44.901Z,85.07
2022-09-10T13:39:40.923Z,85.14
2022-09-10T13:45:22.983Z,84.79
2022-09-10T13:50:37.162Z,84.85
2022-09-10T13:55:54.574Z,85.15
2022-09-10T14:01:05.854Z,85.08
2022-09-10T14:06:22.124Z,85.31
2022-09-10T14:11:29.781Z,85.57
2022-09-10T14:16:37.410Z,85.71
2022-09-10T14:21:38.962Z,85.89
2022-09-10T14:26:40.543Z,85.96
2022-09-10T14:31:42.248Z,86.11
2022-09-10T14:36:43.786Z,86.33
2022-09-10T14:41:46.469Z,86.40
2022-09-10T14:47:36.657Z,86.43
2022-09-10T14:52:38.391Z,86.56
2022-09-10T14:57:40.743Z,86.58
2022-09-10T15:02:42.399Z,86.70
2022-09-10T15:07:46.871Z,86.67
2022-09-10T15:12:51.918Z,86.54
2022-09-10T15:17:53.514Z,86.60
2022-09-10T15:22:55.126Z,86.64
2022-09-10T15:27:56.774Z,86.80
2022-09-10T15:32:58.360Z,86.92
2022-09-10T15:38:02.951Z,87.18
2022-09-10T15:43:05.601Z,87.39
2022-09-10T15:48:07.788Z,87.51
2022-09-10T15:53:20.695Z,87.70
2022-09-10T15:58:23.502Z,87.88
2022-09-10T16:03:25.708Z,88.12
2022-09-10T16:08:28.247Z,88.13
2022-09-10T16:13:30.635Z,88.10
2022-09-10T16:18:36.736Z,88.08
2022-09-10T16:23:41.453Z,88.02
2022-09-10T16:28:51.751Z,87.94
2022-09-10T16:33:55.890Z,88.03
2022-09-10T16:39:02.652Z,88.11
2022-09-10T16:44:05.343Z,88.24
2022-09-10T16:49:11.901Z,88.39
2022-09-10T16:54:15.331Z,88.50
2022-09-10T16:59:21.149Z,88.69
2022-09-10T17:04:29.140Z,89.00
2022-09-10T17:09:31.374Z,89.18
2022-09-10T17:14:33.022Z,89.11
2022-09-10T17:19:37.436Z,89.13
2022-09-10T17:24:38.961Z,89.49
2022-09-10T17:29:41.135Z,89.31
2022-09-10T17:34:44.760Z,89.39
2022-09-10T17:39:47.156Z,89.42
2022-09-10T17:44:48.907Z,89.67
2022-09-10T17:49:51.548Z,89.67
2022-09-10T17:54:53.404Z,89.62
2022-09-10T17:59:55.171Z,89.36
2022-09-10T18:04:57.147Z,89.28
2022-09-10T18:10:02.524Z,89.25
2022-09-10T18:15:05.837Z,89.69
2022-09-10T18:20:08.053Z,90.07
2022-09-10T18:25:09.696Z,90.20
2022-09-10T18:30:13.145Z,90.45
2022-09-10T18:35:14.852Z,90.49
2022-09-10T18:40:17.581Z,90.46
2022-09-10T18:45:19.946Z,90.32
2022-09-10T18:50:25.845Z,90.20
2022-09-10T18:55:28.153Z,90.20
2022-09-10T19:00:29.716Z,90.42
2022-09-10T19:05:31.607Z,90.54
2022-09-10T19:10:36.110Z,90.65
2022-09-10T19:15:37.668Z,90.68
2022-09-10T19:20:39.467Z,90.83
2022-09-10T19:25:56.698Z,90.96
2022-09-10T19:31:02.755Z,91.09
2022-09-10T19:36:09.537Z,90.95
2022-09-10T19:41:18.393Z,90.97
2022-09-10T19:46:24.610Z,91.02
2022-09-10T19:51:36.079Z,91.10
2022-09-10T19:56:41.950Z,91.26
2022-09-10T20:01:45.714Z,91.09
2022-09-10T20:06:50.256Z,91.03
2022-09-10T20:11:52.106Z,91.01
2022-09-10T20:16:54.221Z,91.05
2022-09-10T20:21:55.798Z,91.03
2022-09-10T20:26:57.747Z,91.07
2022-09-10T20:31:59.850Z,91.18
2022-09-10T20:37:02.539Z,91.33
2022-09-10T20:42:04.721Z,91.29
2022-09-10T20:47:08.528Z,91.49
2022-09-10T20:52:10.112Z,91.60
2022-09-10T20:57:11.971Z,91.63
2022-09-10T21:02:13.544Z,91.68
2022-09-10T21:07:16.575Z,91.67
2022-09-10T21:12:18.190Z,91.81
2022-09-10T21:17:19.739Z,91.79
2022-09-10T21:22:21.590Z,91.82
2022-09-10T21:27:23.488Z,91.81
2022-09-10T21:32:25.055Z,92.03
2022-09-10T21:37:26.583Z,92.15
2022-09-10T21:42:28.224Z,92.20
2022-09-10T21:47:30.564Z,92.58
2022-09-10T21:52:32.106Z,92.64
2022-09-10T21:57:33.669Z,92.59
2022-09-10T22:02:35.621Z,92.51
2022-09-10T22:07:37.162Z,92.60
2022-09-10T22:12:38.759Z,92.71
2022-09-10T22:17:40.792Z,92.78
2022-09-10T22:22:43.715Z,92.94
2022-09-10T22:27:45.216Z,92.92
2022-09-10T22:32:46.745Z,92.74
2022-09-10T22:37:48.266Z,92.85
2022-09-10T22:42:51.133Z,93.01
2022-09-10T22:47:52.693Z,92.99
2022-09-10T22:52:54.569Z,93.07
2022-09-10T22:57:56.064Z,93.05
2022-09-10T23:02:57.647Z,92.98
2022-09-10T23:07:59.198Z,93.08
2022-09-10T23:13:00.820Z,93.22
2022-09-10T23:18:02.367Z,93.13
2022-09-10T23:23:03.845Z,93.15
2022-09-10T23:28:07.360Z,92.83
2022-09-10T23:33:09.281Z,92.50
2022-09-10T23:38:10.826Z,92.33
2022-09-10T23:43:13.869Z,92.33
2022-09-10T23:48:15.407Z,92.32
2022-09-10T23:53:18.350Z,92.25
2022-09-10T23:58:21.044Z,92.28
